Decoded Metar for KMOB (MOBILE in AL, USA) (IATA:MOB) | Meteo·Mobile Aviation Weather
aviador You're here:

KMOB Decoded Metar

MOBILE in AL, USA
Report Time2019-04-20 09:56:00
UTC Time2019-04-20 10:13:35
Flight Rules vfr VFR
Wind250° at 04 kt
W.Decomp.*RWY 32: 1.4 kt HW 3.7 kt LCW
RWY 18: 1.3 kt HW 3.8 kt RCW
Visibility9999 m
Phenomena:N/A
Clouds:Few 065 Hf
Scattered 100 Hf
Expected CloudBase > 1,200 ft AGL from Temp-Dew spread
CeilingNone
Temp10°C (ISA -5)
Dew Point07°C (82% RH)
AAT7.9°C
QNH1013 hPa
Density Alt-207 ft
Elevation207 ft
Report Wrong Elevation
Raw Report
KMOB 200956Z AUTO 25004KT 10SM FEW065 SCT100 10/07 A2992 RMK AO2
SLP131 T01000072=

Extra information for KMOB:More info

Metar Taf Metar & Taf Last 4 Metars F.Rules Stats Wind Profile Meteogram Temp Stats Airport Information Weather charts Add Link Nearby VenuesMetar ALERT Operation Metar Decoded Social comments

AIRNAV info for KMOB